createdAt,value
2022-12-04T00:01:21.131Z,38.70
2022-12-04T00:03:48.383Z,34.80
2022-12-04T00:06:19.294Z,35.83
2022-12-04T00:08:47.577Z,34.57
2022-12-04T00:11:17.250Z,37.20
2022-12-04T00:13:44.510Z,36.63
2022-12-04T00:16:14.379Z,34.23
2022-12-04T00:18:41.370Z,33.37
2022-12-04T00:21:11.218Z,34.37
2022-12-04T00:23:38.966Z,36.00
2022-12-04T00:26:09.148Z,32.50
2022-12-04T00:28:36.811Z,35.53
2022-12-04T00:31:09.327Z,35.00
2022-12-04T00:33:36.641Z,33.57
2022-12-04T00:36:07.396Z,33.13
2022-12-04T00:38:34.324Z,31.97
2022-12-04T00:41:01.046Z,29.27
2022-12-04T00:43:28.818Z,32.93
2022-12-04T00:45:56.212Z,33.03
2022-12-04T00:48:23.375Z,33.40
2022-12-04T00:50:50.271Z,30.70
2022-12-04T00:53:17.048Z,31.07
2022-12-04T00:55:44.390Z,32.00
2022-12-04T00:58:11.274Z,30.93
2022-12-04T01:00:40.440Z,34.47
2022-12-04T01:03:08.870Z,31.83
2022-12-04T01:05:44.671Z,31.30
2022-12-04T01:08:12.495Z,30.77
2022-12-04T01:10:41.279Z,30.90
2022-12-04T01:13:08.198Z,32.47
2022-12-04T01:15:39.751Z,30.60
2022-12-04T01:18:06.859Z,30.07
2022-12-04T01:20:33.644Z,31.37
2022-12-04T01:23:00.503Z,31.63
2022-12-04T01:25:27.323Z,32.43
2022-12-04T01:27:54.057Z,32.73
2022-12-04T01:30:20.782Z,29.47
2022-12-04T01:32:47.368Z,33.30
2022-12-04T01:35:13.980Z,30.33
2022-12-04T01:37:40.598Z,33.33
2022-12-04T01:40:11.436Z,32.20
2022-12-04T01:42:38.019Z,33.57
2022-12-04T01:45:39.031Z,31.40
2022-12-04T01:48:27.440Z,32.43
2022-12-04T01:51:00.055Z,33.73
2022-12-04T01:53:27.066Z,33.63
2022-12-04T01:55:55.246Z,33.23
2022-12-04T01:58:28.459Z,32.20
2022-12-04T02:01:00.789Z,32.33
2022-12-04T02:03:30.383Z,32.03
2022-12-04T02:05:57.058Z,31.50
2022-12-04T02:08:24.232Z,31.10
2022-12-04T02:11:02.773Z,32.63
2022-12-04T02:13:41.954Z,32.90
2022-12-04T02:16:22.495Z,32.33
2022-12-04T02:19:24.918Z,33.10
2022-12-04T02:21:55.356Z,33.80
2022-12-04T02:24:34.100Z,32.43
2022-12-04T02:27:09.005Z,34.37
2022-12-04T02:29:59.330Z,33.13
2022-12-04T02:32:41.080Z,34.50
2022-12-04T02:35:30.186Z,31.47
2022-12-04T02:38:11.839Z,33.40
2022-12-04T02:41:21.813Z,30.83
2022-12-04T02:44:01.653Z,32.23
2022-12-04T02:46:38.545Z,34.37
2022-12-04T02:49:12.058Z,35.20
2022-12-04T02:51:41.289Z,32.20
2022-12-04T02:54:16.448Z,32.97
2022-12-04T02:56:46.497Z,36.53
2022-12-04T02:59:20.135Z,33.40
2022-12-04T03:01:51.896Z,36.87
2022-12-04T03:04:21.596Z,33.17
2022-12-04T03:06:54.939Z,32.77
2022-12-04T03:09:27.613Z,34.70
2022-12-04T03:11:59.642Z,32.83
2022-12-04T03:14:37.214Z,32.13
2022-12-04T03:17:10.316Z,32.77
2022-12-04T03:19:41.602Z,35.37
2022-12-04T03:22:13.491Z,31.97
2022-12-04T03:24:50.837Z,32.53
2022-12-04T03:27:26.034Z,34.07
2022-12-04T03:30:00.351Z,33.43
2022-12-04T03:32:49.431Z,35.33
2022-12-04T03:35:21.928Z,32.30
2022-12-04T03:38:11.261Z,32.77
2022-12-04T03:40:55.736Z,31.03
2022-12-04T03:43:39.445Z,34.27
2022-12-04T03:46:12.481Z,33.40
2022-12-04T03:48:42.980Z,32.33
2022-12-04T03:51:19.622Z,31.33
2022-12-04T03:53:54.758Z,31.50
2022-12-04T03:56:32.960Z,33.13
2022-12-04T03:59:11.183Z,29.87
2022-12-04T04:01:44.472Z,33.27
2022-12-04T04:04:15.640Z,29.87
2022-12-04T04:06:56.929Z,33.73
2022-12-04T04:09:26.437Z,32.47
2022-12-04T04:11:58.617Z,32.97
2022-12-04T04:15:19.720Z,33.80
2022-12-04T04:18:07.757Z,33.87
2022-12-04T04:21:00.825Z,33.63
2022-12-04T04:23:51.460Z,32.53
2022-12-04T04:26:18.706Z,31.07
2022-12-04T04:28:46.336Z,32.87
2022-12-04T04:31:19.071Z,31.57
2022-12-04T04:34:14.567Z,33.00
2022-12-04T04:37:09.947Z,35.20
2022-12-04T04:40:05.717Z,31.30
2022-12-04T04:42:48.425Z,31.23
2022-12-04T04:45:21.559Z,32.73
2022-12-04T04:47:57.808Z,31.03
2022-12-04T04:50:24.902Z,32.20
2022-12-04T04:52:57.622Z,30.17
2022-12-04T04:55:24.346Z,31.13
2022-12-04T04:57:50.965Z,32.60
2022-12-04T05:00:21.097Z,30.83
2022-12-04T05:02:50.026Z,32.90
2022-12-04T05:05:17.861Z,32.13
2022-12-04T05:07:44.588Z,31.17
2022-12-04T05:10:11.296Z,32.93
2022-12-04T05:12:37.950Z,33.27
2022-12-04T05:15:05.329Z,33.77
2022-12-04T05:17:31.915Z,31.97
2022-12-04T05:19:58.819Z,33.60
2022-12-04T05:22:34.693Z,31.60
2022-12-04T05:25:01.915Z,32.90
2022-12-04T05:27:29.958Z,32.10
2022-12-04T05:29:58.408Z,33.17
2022-12-04T05:32:27.675Z,32.73
2022-12-04T05:34:55.565Z,32.47
2022-12-04T05:37:22.968Z,32.23
2022-12-04T05:39:49.629Z,30.93
2022-12-04T05:42:16.274Z,34.07
2022-12-04T05:44:42.911Z,32.33
2022-12-04T05:47:09.546Z,32.83
2022-12-04T05:49:36.170Z,33.27
2022-12-04T05:52:04.838Z,32.73
2022-12-04T05:54:31.582Z,32.23
2022-12-04T05:56:58.180Z,35.83
2022-12-04T05:59:24.809Z,32.53
2022-12-04T06:01:51.462Z,32.63
2022-12-04T06:04:18.094Z,32.70
2022-12-04T06:06:44.816Z,33.50
2022-12-04T06:09:11.931Z,33.90
2022-12-04T06:11:41.135Z,33.60
2022-12-04T06:14:11.017Z,35.93
2022-12-04T06:16:40.773Z,32.40
2022-12-04T06:19:17.605Z,34.57
2022-12-04T06:21:46.684Z,34.43
2022-12-04T06:24:16.170Z,34.63
2022-12-04T06:27:03.891Z,35.13
2022-12-04T06:29:30.162Z,35.33
2022-12-04T06:31:56.811Z,33.30
2022-12-04T06:34:23.481Z,35.83
2022-12-04T06:36:50.072Z,34.63
2022-12-04T06:39:19.031Z,34.83
2022-12-04T06:41:47.404Z,36.83
2022-12-04T06:44:15.626Z,31.87
2022-12-04T06:46:46.890Z,36.47
2022-12-04T06:49:14.432Z,34.20
2022-12-04T06:51:41.078Z,36.30
2022-12-04T06:54:08.874Z,34.17
2022-12-04T06:56:35.765Z,36.47
2022-12-04T06:59:04.103Z,33.97
2022-12-04T07:01:33.331Z,32.77
2022-12-04T07:04:03.303Z,34.23
2022-12-04T07:06:32.918Z,36.00
2022-12-04T07:09:02.809Z,37.23
2022-12-04T07:11:29.963Z,37.27
2022-12-04T07:13:56.681Z,36.23
2022-12-04T07:16:24.872Z,40.00
2022-12-04T07:18:53.821Z,38.60
2022-12-04T07:21:23.393Z,41.10
2022-12-04T07:23:51.695Z,35.40
2022-12-04T07:26:19.177Z,40.60
2022-12-04T07:28:46.280Z,38.17
2022-12-04T07:31:18.848Z,36.60
2022-12-04T07:33:46.259Z,37.60
2022-12-04T07:36:15.419Z,38.23
2022-12-04T07:38:42.577Z,39.00
2022-12-04T07:41:11.176Z,39.87
2022-12-04T07:43:38.113Z,40.27
2022-12-04T07:46:07.425Z,38.00
2022-12-04T07:48:34.361Z,38.97
2022-12-04T07:51:09.272Z,39.97
2022-12-04T07:53:36.355Z,37.60
2022-12-04T07:56:04.616Z,39.43
2022-12-04T07:58:32.029Z,40.23
2022-12-04T08:01:09.815Z,38.80
2022-12-04T08:03:38.935Z,41.73
2022-12-04T08:06:09.405Z,39.10
2022-12-04T08:08:36.733Z,38.03
2022-12-04T08:11:12.363Z,41.30
2022-12-04T08:13:38.942Z,40.90
2022-12-04T08:16:07.097Z,41.07
2022-12-04T08:18:33.998Z,41.17
2022-12-04T08:21:12.437Z,42.13
2022-12-04T08:23:40.661Z,43.13
2022-12-04T08:26:07.849Z,40.93
2022-12-04T08:28:35.063Z,39.57
2022-12-04T08:31:12.413Z,41.37
2022-12-04T08:33:39.832Z,39.90
2022-12-04T08:36:08.495Z,40.93
2022-12-04T08:38:35.573Z,39.43
2022-12-04T08:41:04.019Z,41.47
2022-12-04T08:43:30.990Z,38.33
2022-12-04T08:45:59.615Z,38.77
2022-12-04T08:48:26.901Z,38.40
2022-12-04T08:50:54.203Z,45.03
2022-12-04T08:53:21.272Z,39.13
2022-12-04T08:55:48.134Z,40.87
2022-12-04T08:58:15.018Z,42.23
2022-12-04T09:00:42.318Z,41.80
2022-12-04T09:03:13.454Z,41.23
2022-12-04T09:05:41.399Z,41.43
2022-12-04T09:08:08.229Z,39.20
2022-12-04T09:10:36.107Z,37.77
2022-12-04T09:13:03.354Z,41.40
2022-12-04T09:15:30.289Z,37.93
2022-12-04T09:17:56.982Z,41.33
2022-12-04T09:20:23.714Z,39.17
2022-12-04T09:23:03.573Z,37.87
2022-12-04T09:25:31.680Z,38.97
2022-12-04T09:27:59.034Z,38.93
2022-12-04T09:30:25.660Z,35.17
2022-12-04T09:32:52.337Z,37.23
2022-12-04T09:35:19.022Z,36.53
2022-12-04T09:37:45.687Z,35.20
2022-12-04T09:40:24.962Z,36.70
2022-12-04T09:43:07.734Z,36.00
2022-12-04T09:45:46.934Z,40.00
2022-12-04T09:48:18.556Z,36.50
2022-12-04T09:50:46.425Z,35.80
2022-12-04T09:53:20.831Z,34.60
2022-12-04T09:55:51.415Z,33.50
2022-12-04T09:58:22.688Z,33.83
2022-12-04T10:00:52.075Z,35.43
2022-12-04T10:03:21.960Z,35.23
2022-12-04T10:06:11.806Z,31.23
2022-12-04T10:08:44.855Z,33.53
2022-12-04T10:11:32.350Z,30.97
2022-12-04T10:14:23.276Z,34.93
2022-12-04T10:17:13.283Z,33.27
2022-12-04T10:20:14.998Z,32.40
2022-12-04T10:23:16.259Z,30.97
2022-12-04T10:25:43.750Z,30.10
2022-12-04T10:28:38.994Z,31.10
2022-12-04T10:31:12.441Z,32.13
2022-12-04T10:33:51.635Z,31.27
2022-12-04T10:36:21.566Z,34.90
2022-12-04T10:39:01.875Z,29.50
2022-12-04T10:41:45.299Z,29.63
2022-12-04T10:44:16.659Z,31.50
2022-12-04T10:46:46.230Z,33.07
2022-12-04T10:49:18.381Z,30.00
2022-12-04T10:51:45.772Z,31.37
2022-12-04T10:54:21.855Z,32.90
2022-12-04T10:57:00.909Z,30.17
2022-12-04T10:59:28.788Z,30.23
2022-12-04T11:02:25.915Z,32.37
2022-12-04T11:05:07.892Z,31.13
2022-12-04T11:07:48.237Z,33.00
2022-12-04T11:10:41.465Z,32.23
2022-12-04T11:13:11.088Z,32.40
2022-12-04T11:15:55.374Z,32.60
2022-12-04T11:18:31.386Z,32.13
2022-12-04T11:21:07.187Z,31.83
2022-12-04T11:23:50.103Z,33.53
2022-12-04T11:26:38.074Z,30.43
2022-12-04T11:29:05.847Z,34.20
2022-12-04T11:31:33.045Z,30.97
2022-12-04T11:34:06.699Z,32.57
2022-12-04T11:36:42.636Z,35.03
2022-12-04T11:39:36.145Z,32.80
2022-12-04T11:42:19.501Z,31.20
2022-12-04T11:44:57.689Z,31.93
2022-12-04T11:47:28.720Z,34.10
2022-12-04T11:50:14.118Z,32.87
2022-12-04T11:53:28.694Z,30.50
2022-12-04T11:56:25.197Z,32.43
2022-12-04T11:58:59.620Z,31.50
2022-12-04T12:01:40.548Z,33.13
2022-12-04T12:04:31.763Z,31.37
2022-12-04T12:07:23.037Z,33.57
2022-12-04T12:09:53.254Z,32.23
2022-12-04T12:12:45.518Z,31.97
2022-12-04T12:15:39.500Z,33.57
2022-12-04T12:18:33.560Z,30.63
2022-12-04T12:21:12.650Z,30.90
2022-12-04T12:23:58.761Z,29.87
2022-12-04T12:26:54.729Z,31.67
2022-12-04T12:30:15.865Z,31.50
2022-12-04T12:32:54.645Z,30.50
2022-12-04T12:35:33.992Z,32.80
2022-12-04T12:38:10.528Z,30.17
2022-12-04T12:40:40.218Z,32.43
2022-12-04T12:43:35.681Z,32.90
2022-12-04T12:46:15.232Z,32.40
2022-12-04T12:49:07.287Z,32.20
2022-12-04T12:51:46.945Z,40.60
2022-12-04T12:54:39.441Z,29.47
2022-12-04T12:57:15.286Z,31.23
2022-12-04T12:59:51.709Z,32.47
2022-12-04T13:02:40.705Z,32.67
2022-12-04T13:05:17.347Z,29.57
2022-12-04T13:07:53.013Z,30.90
2022-12-04T13:10:29.147Z,30.53
2022-12-04T13:13:12.006Z,32.27
2022-12-04T13:15:44.598Z,29.93
2022-12-04T13:18:41.557Z,29.43
2022-12-04T13:21:13.898Z,28.60
2022-12-04T13:23:44.824Z,28.70
2022-12-04T13:26:47.706Z,28.70
2022-12-04T13:29:30.402Z,29.77
2022-12-04T13:32:30.031Z,29.47
2022-12-04T13:35:26.219Z,27.53
2022-12-04T13:38:25.763Z,24.57
2022-12-04T13:40:56.694Z,26.50
2022-12-04T13:43:41.475Z,27.13
2022-12-04T13:46:42.554Z,27.40
2022-12-04T13:49:18.045Z,31.03
2022-12-04T13:51:46.294Z,25.07
2022-12-04T13:54:12.866Z,24.00
2022-12-04T13:56:42.104Z,27.30
2022-12-04T13:59:30.456Z,24.77
2022-12-04T14:02:21.899Z,26.50
2022-12-04T14:05:07.964Z,26.37
2022-12-04T14:07:51.035Z,26.33
2022-12-04T14:10:18.133Z,26.13
2022-12-04T14:13:04.349Z,25.60
2022-12-04T14:15:34.919Z,26.97
2022-12-04T14:18:14.804Z,28.33
2022-12-04T14:20:44.348Z,28.47
2022-12-04T14:23:26.535Z,28.00
2022-12-04T14:25:58.748Z,26.43
2022-12-04T14:28:33.100Z,31.23
2022-12-04T14:31:20.155Z,27.57
2022-12-04T14:36:54.792Z,32.40
2022-12-04T14:39:26.586Z,29.53
2022-12-04T14:42:03.781Z,29.27
2022-12-04T14:44:31.860Z,28.77
2022-12-04T14:47:40.053Z,27.13
2022-12-04T14:50:28.457Z,29.77
2022-12-04T14:53:12.588Z,30.00
2022-12-04T14:56:23.095Z,30.13
2022-12-04T14:58:50.245Z,29.80
2022-12-04T15:01:30.674Z,31.33
2022-12-04T15:04:00.159Z,31.17
2022-12-04T15:07:01.003Z,31.03
2022-12-04T15:09:47.583Z,30.87
2022-12-04T15:12:33.566Z,28.13
2022-12-04T15:15:09.755Z,32.57
2022-12-04T15:17:41.602Z,31.53
2022-12-04T15:20:28.860Z,33.57
2022-12-04T15:22:58.722Z,31.93
2022-12-04T15:25:31.416Z,32.17
2022-12-04T15:28:20.931Z,31.47
2022-12-04T15:30:49.886Z,32.30
2022-12-04T15:33:26.408Z,31.83
2022-12-04T15:36:00.201Z,32.77
2022-12-04T15:38:27.475Z,28.97
2022-12-04T15:40:57.501Z,35.67
2022-12-04T15:43:38.855Z,35.50
2022-12-04T15:46:21.974Z,31.33
2022-12-04T15:48:48.738Z,32.90
2022-12-04T15:51:17.023Z,32.77
2022-12-04T15:53:45.806Z,34.07
2022-12-04T15:56:21.065Z,34.57
2022-12-04T15:59:00.779Z,31.43
2022-12-04T16:01:37.476Z,32.00
2022-12-04T16:04:04.183Z,29.30
2022-12-04T16:06:33.542Z,29.63
2022-12-04T16:09:18.164Z,28.73
2022-12-04T16:11:44.823Z,30.13
2022-12-04T16:14:11.425Z,31.23
2022-12-04T16:16:42.113Z,28.27
2022-12-04T16:19:14.729Z,30.50
2022-12-04T16:21:41.367Z,28.70
2022-12-04T16:24:14.393Z,30.07
2022-12-04T16:26:41.543Z,29.17
2022-12-04T16:29:08.281Z,29.17
2022-12-04T16:31:35.389Z,26.67
2022-12-04T16:34:02.059Z,24.77
2022-12-04T16:36:28.791Z,25.37
2022-12-04T16:38:55.437Z,26.77
2022-12-04T16:41:22.222Z,26.63
2022-12-04T16:43:58.591Z,25.23
2022-12-04T16:46:27.294Z,26.13
2022-12-04T16:48:54.576Z,26.57
2022-12-04T16:51:26.566Z,27.90
2022-12-04T16:53:54.299Z,26.83
2022-12-04T16:56:24.115Z,28.43
2022-12-04T16:58:50.846Z,26.57
2022-12-04T17:01:24.249Z,22.80
2022-12-04T17:03:51.518Z,26.70
2022-12-04T17:06:18.566Z,28.13
2022-12-04T17:08:45.355Z,28.37
2022-12-04T17:11:14.452Z,27.97
2022-12-04T17:13:43.243Z,24.13
2022-12-04T17:16:14.590Z,26.23
2022-12-04T17:18:42.362Z,26.93
2022-12-04T17:21:12.691Z,25.37
2022-12-04T17:23:40.630Z,24.50
2022-12-04T17:26:12.267Z,25.00
2022-12-04T17:28:39.780Z,26.27
2022-12-04T17:31:17.059Z,27.37
2022-12-04T17:33:44.219Z,25.03
2022-12-04T17:36:17.983Z,25.50
2022-12-04T17:38:44.760Z,23.37
2022-12-04T17:41:14.033Z,25.23
2022-12-04T17:43:41.989Z,25.43
2022-12-04T17:46:14.338Z,23.93
2022-12-04T17:48:41.932Z,22.90
2022-12-04T17:51:14.835Z,25.57
2022-12-04T17:53:41.554Z,23.53
2022-12-04T17:56:10.735Z,22.83
2022-12-04T17:58:37.545Z,23.47
2022-12-04T18:01:06.403Z,23.77
2022-12-04T18:03:33.727Z,24.20
2022-12-04T18:06:01.370Z,23.87
2022-12-04T18:08:30.743Z,22.37
2022-12-04T18:10:57.591Z,21.07
2022-12-04T18:13:45.024Z,24.20
2022-12-04T18:16:21.855Z,20.83
2022-12-04T18:19:11.295Z,20.33
2022-12-04T18:22:22.678Z,20.70
2022-12-04T18:28:06.234Z,21.77
2022-12-04T18:30:34.141Z,21.20
2022-12-04T18:33:00.723Z,19.93
2022-12-04T18:35:27.352Z,18.63
2022-12-04T18:37:53.942Z,21.20
2022-12-04T18:40:20.528Z,20.40
2022-12-04T18:42:47.159Z,20.10
2022-12-04T18:45:13.839Z,18.93
2022-12-04T18:47:40.465Z,24.77
2022-12-04T18:50:07.439Z,20.37
2022-12-04T18:52:36.767Z,21.00
2022-12-04T18:55:03.533Z,20.87
2022-12-04T18:57:30.162Z,20.70
2022-12-04T18:59:57.018Z,20.83
2022-12-04T19:02:23.984Z,19.67
2022-12-04T19:04:50.792Z,21.03
2022-12-04T19:07:18.653Z,20.83
2022-12-04T19:10:10.344Z,21.33
2022-12-04T19:12:32.491Z,19.57
2022-12-04T19:14:59.156Z,21.13
2022-12-04T19:17:25.731Z,21.97
2022-12-04T19:19:52.336Z,23.73
2022-12-04T19:22:19.063Z,23.73
2022-12-04T19:24:46.862Z,22.77
2022-12-04T19:27:14.055Z,23.07
2022-12-04T19:29:42.390Z,23.73
2022-12-04T19:32:10.674Z,24.10
2022-12-04T19:34:37.977Z,25.27
2022-12-04T19:37:04.802Z,26.13
2022-12-04T19:39:31.486Z,25.50
2022-12-04T19:41:58.104Z,23.27
2022-12-04T19:44:48.361Z,26.07
2022-12-04T19:47:11.279Z,25.43
2022-12-04T19:49:38.119Z,26.67
2022-12-04T19:52:05.460Z,27.27
2022-12-04T19:54:32.240Z,25.70
2022-12-04T19:56:59.054Z,27.47
2022-12-04T19:59:27.146Z,28.23
2022-12-04T20:01:55.301Z,24.63
2022-12-04T20:04:22.126Z,26.70
2022-12-04T20:06:48.758Z,25.33
2022-12-04T20:09:19.399Z,24.47
2022-12-04T20:11:46.476Z,26.20
2022-12-04T20:14:13.469Z,28.33
2022-12-04T20:16:40.783Z,26.57
2022-12-04T20:19:14.356Z,19.83
2022-12-04T20:21:41.223Z,25.77
2022-12-04T20:24:08.195Z,24.73
2022-12-04T20:26:38.132Z,23.90
2022-12-04T20:29:06.711Z,23.20
2022-12-04T20:31:39.154Z,24.13
2022-12-04T20:34:08.615Z,26.00
2022-12-04T20:36:37.956Z,25.70
2022-12-04T20:39:05.758Z,25.63
2022-12-04T20:41:33.554Z,24.43
2022-12-04T20:44:02.442Z,24.33
2022-12-04T20:46:35.772Z,26.27
2022-12-04T20:49:06.191Z,24.23
2022-12-04T20:51:39.313Z,24.63
2022-12-04T20:54:07.358Z,25.43
2022-12-04T20:56:36.696Z,26.70
2022-12-04T20:59:08.089Z,25.07
2022-12-04T21:01:35.474Z,26.10
2022-12-04T21:04:03.986Z,25.53
2022-12-04T21:06:36.885Z,24.13
2022-12-04T21:09:10.486Z,22.77
2022-12-04T21:11:40.281Z,24.67
2022-12-04T21:14:30.294Z,23.90
2022-12-04T21:16:57.407Z,23.17
2022-12-04T21:19:24.773Z,24.53
2022-12-04T21:21:51.772Z,24.57
2022-12-04T21:24:20.968Z,24.30
2022-12-04T21:26:47.914Z,22.37
2022-12-04T21:29:15.447Z,24.43
2022-12-04T21:31:42.131Z,22.97
2022-12-04T21:34:11.875Z,23.10
2022-12-04T21:36:38.871Z,24.40
2022-12-04T21:39:06.958Z,25.70
2022-12-04T21:41:52.322Z,26.03
2022-12-04T21:44:20.093Z,23.70
2022-12-04T21:46:47.600Z,27.00
2022-12-04T21:49:15.547Z,26.37
2022-12-04T21:51:58.894Z,26.53
2022-12-04T21:54:27.416Z,25.73
2022-12-04T21:56:54.829Z,26.13
2022-12-04T21:59:21.701Z,26.20
2022-12-04T22:01:48.476Z,27.43
2022-12-04T22:04:15.535Z,26.63
2022-12-04T22:06:42.465Z,24.63
2022-12-04T22:09:11.510Z,25.10
2022-12-04T22:11:39.010Z,25.77
2022-12-04T22:14:05.670Z,25.03
2022-12-04T22:16:35.756Z,24.20
2022-12-04T22:19:05.021Z,24.33
2022-12-04T22:21:31.597Z,26.00
2022-12-04T22:23:59.801Z,24.37
2022-12-04T22:26:28.036Z,26.33
2022-12-04T22:28:55.167Z,25.40
2022-12-04T22:31:26.229Z,24.60
2022-12-04T22:33:54.793Z,26.97
2022-12-04T22:36:24.885Z,26.10
2022-12-04T22:41:38.234Z,25.30
2022-12-04T22:44:05.331Z,25.97
2022-12-04T22:46:32.599Z,27.23
2022-12-04T22:48:59.885Z,29.37
2022-12-04T22:51:27.283Z,25.80
2022-12-04T22:53:56.903Z,26.47
2022-12-04T22:56:26.016Z,26.63
2022-12-04T22:58:54.037Z,26.47
2022-12-04T23:01:23.361Z,28.90
2022-12-04T23:03:51.106Z,26.60
2022-12-04T23:06:19.830Z,25.13
2022-12-04T23:08:46.751Z,26.43
2022-12-04T23:11:16.332Z,25.57
2022-12-04T23:13:44.205Z,28.00
2022-12-04T23:16:13.266Z,27.33
2022-12-04T23:18:43.659Z,27.60
2022-12-04T23:21:13.495Z,28.90
2022-12-04T23:23:42.036Z,26.90
2022-12-04T23:26:15.798Z,27.67
2022-12-04T23:28:43.006Z,27.30
2022-12-04T23:31:10.894Z,26.43
2022-12-04T23:33:38.553Z,26.70
2022-12-04T23:36:06.824Z,26.40
2022-12-04T23:38:35.299Z,26.57
2022-12-04T23:41:04.093Z,27.93
2022-12-04T23:43:30.792Z,27.53
2022-12-04T23:45:57.510Z,28.37
2022-12-04T23:48:25.357Z,26.67
2022-12-04T23:50:52.261Z,27.73
2022-12-04T23:53:19.494Z,28.10
2022-12-04T23:55:56.267Z,27.17
2022-12-04T23:58:22.919Z,25.90
